createdAt,value
2022-10-06T00:00:27.954Z,9.76
2022-10-06T00:03:16.781Z,9.75
2022-10-06T00:05:45.253Z,9.67
2022-10-06T00:08:12.547Z,9.64
2022-10-06T00:10:40.444Z,9.58
2022-10-06T00:13:09.462Z,9.55
2022-10-06T00:15:36.671Z,9.50
2022-10-06T00:18:04.283Z,9.45
2022-10-06T00:20:31.913Z,9.39
2022-10-06T00:22:59.099Z,9.38
2022-10-06T00:25:28.370Z,9.32
2022-10-06T00:27:56.477Z,9.30
2022-10-06T00:30:27.697Z,9.26
2022-10-06T00:33:02.991Z,9.24
2022-10-06T00:35:34.274Z,9.15
2022-10-06T00:38:01.958Z,9.12
2022-10-06T00:40:30.977Z,9.14
2022-10-06T00:43:06.010Z,9.09
2022-10-06T00:45:48.903Z,9.06
2022-10-06T00:48:25.817Z,9.02
2022-10-06T00:50:56.794Z,8.98
2022-10-06T00:53:30.140Z,8.96
2022-10-06T00:55:57.439Z,8.93
2022-10-06T00:58:25.300Z,8.88
2022-10-06T01:00:56.272Z,8.86
2022-10-06T01:03:36.344Z,8.81
2022-10-06T01:06:09.967Z,8.75
2022-10-06T01:08:38.621Z,8.75
2022-10-06T01:11:13.184Z,8.73
2022-10-06T01:13:46.729Z,8.70
2022-10-06T01:16:24.446Z,8.65
2022-10-06T01:18:55.964Z,8.60
2022-10-06T01:21:38.971Z,8.55
2022-10-06T01:24:09.890Z,8.56
2022-10-06T01:26:43.872Z,8.53
2022-10-06T01:29:13.281Z,8.46
2022-10-06T01:31:40.882Z,8.43
2022-10-06T01:34:08.026Z,8.37
2022-10-06T01:36:35.355Z,8.35
2022-10-06T01:39:03.110Z,8.35
2022-10-06T01:41:33.200Z,8.34
2022-10-06T01:44:05.688Z,8.31
2022-10-06T01:46:33.383Z,8.24
2022-10-06T01:49:00.429Z,8.23
2022-10-06T01:51:30.112Z,8.20
2022-10-06T01:53:58.847Z,8.17
2022-10-06T01:56:26.000Z,8.14
2022-10-06T01:58:53.281Z,8.13
2022-10-06T02:01:21.328Z,8.12
2022-10-06T02:03:48.528Z,8.08
2022-10-06T02:06:15.728Z,8.09
2022-10-06T02:08:45.275Z,8.03
2022-10-06T02:11:13.162Z,7.98
2022-10-06T02:13:43.857Z,7.95
2022-10-06T02:16:14.029Z,7.93
2022-10-06T02:18:42.571Z,7.86
2022-10-06T02:21:16.585Z,7.78
2022-10-06T02:23:44.259Z,7.74
2022-10-06T02:26:13.282Z,7.71
2022-10-06T02:28:50.270Z,7.68
2022-10-06T02:51:10.125Z,7.52
2022-10-06T02:53:40.180Z,7.47
2022-10-06T02:56:16.383Z,7.47
2022-10-06T02:58:45.938Z,7.42
2022-10-06T03:01:27.903Z,7.40
2022-10-06T03:04:07.427Z,7.33
2022-10-06T03:06:35.023Z,7.30
2022-10-06T03:09:09.139Z,7.32
2022-10-06T03:11:42.888Z,7.30
2022-10-06T03:14:20.561Z,7.26
2022-10-06T03:16:51.773Z,7.23
2022-10-06T03:19:30.427Z,7.17
2022-10-06T03:21:58.869Z,7.16
2022-10-06T03:24:35.021Z,7.20
2022-10-06T03:27:03.347Z,7.17
2022-10-06T03:29:31.098Z,7.11
2022-10-06T03:31:58.917Z,7.09
2022-10-06T03:34:27.047Z,7.05
2022-10-06T03:36:55.473Z,7.03
2022-10-06T03:39:25.159Z,6.99
2022-10-06T03:41:53.021Z,6.97
2022-10-06T03:44:21.946Z,6.95
2022-10-06T03:46:49.340Z,6.95
2022-10-06T03:49:17.020Z,6.92
2022-10-06T03:51:44.184Z,6.94
2022-10-06T03:54:17.088Z,6.89
2022-10-06T03:56:47.748Z,6.86
2022-10-06T03:59:19.430Z,6.84
2022-10-06T04:01:48.955Z,6.81
2022-10-06T04:09:54.121Z,6.74
2022-10-06T04:12:21.618Z,6.72
2022-10-06T04:14:50.563Z,6.74
2022-10-06T04:17:19.049Z,6.73
2022-10-06T04:19:49.992Z,6.68
2022-10-06T04:22:20.977Z,6.69
2022-10-06T04:24:48.920Z,6.64
2022-10-06T04:27:28.217Z,6.62
2022-10-06T04:30:02.043Z,6.56
2022-10-06T04:32:34.484Z,6.55
2022-10-06T04:35:01.779Z,6.55
2022-10-06T04:37:56.937Z,6.54
2022-10-06T04:40:24.410Z,6.56
2022-10-06T04:42:52.285Z,6.55
2022-10-06T04:45:20.161Z,6.52
2022-10-06T04:47:50.010Z,6.50
2022-10-06T04:50:18.336Z,6.50
2022-10-06T04:53:04.704Z,6.46
2022-10-06T04:55:32.730Z,6.41
2022-10-06T04:57:59.982Z,6.44
2022-10-06T05:00:28.529Z,6.38
2022-10-06T05:02:57.245Z,6.39
2022-10-06T05:05:24.623Z,6.38
2022-10-06T05:07:53.774Z,6.36
2022-10-06T05:10:21.628Z,6.36
2022-10-06T05:12:49.197Z,6.33
2022-10-06T05:15:23.309Z,6.31
2022-10-06T05:18:01.012Z,6.29
2022-10-06T05:20:29.927Z,6.31
2022-10-06T05:22:57.643Z,6.33
2022-10-06T05:37:54.873Z,6.40
2022-10-06T05:40:51.463Z,6.63
2022-10-06T06:10:43.894Z,7.72
2022-10-06T07:15:57.734Z,12.04
2022-10-06T07:18:44.106Z,12.21
2022-10-06T07:21:42.502Z,12.41
2022-10-06T07:24:28.767Z,12.60
2022-10-06T07:26:56.687Z,12.77
2022-10-06T07:29:24.422Z,12.99
2022-10-06T07:31:51.699Z,13.26
2022-10-06T07:34:19.145Z,13.49
2022-10-06T07:36:48.642Z,13.78
2022-10-06T07:39:16.518Z,14.01
2022-10-06T07:41:43.902Z,14.23
2022-10-06T07:44:11.038Z,14.46
2022-10-06T07:46:38.725Z,14.56
2022-10-06T07:49:11.309Z,14.61
2022-10-06T07:51:39.650Z,14.71
2022-10-06T07:54:08.797Z,14.66
2022-10-06T07:56:53.391Z,14.82
2022-10-06T07:59:21.132Z,14.97
2022-10-06T08:01:50.999Z,15.01
2022-10-06T08:04:18.293Z,15.20
2022-10-06T08:06:47.547Z,15.30
2022-10-06T08:09:14.794Z,15.43
2022-10-06T08:11:43.842Z,15.43
2022-10-06T08:14:11.133Z,15.60
2022-10-06T08:16:38.998Z,15.82
2022-10-06T08:19:07.426Z,15.97
2022-10-06T08:21:34.904Z,16.08
2022-10-06T08:24:02.506Z,16.15
2022-10-06T08:26:31.162Z,16.29
2022-10-06T08:29:03.089Z,16.36
2022-10-06T08:31:32.484Z,16.55
2022-10-06T08:34:01.313Z,16.75
2022-10-06T08:36:31.774Z,16.92
2022-10-06T08:39:00.786Z,17.12
2022-10-06T08:41:46.612Z,17.19
2022-10-06T08:44:18.631Z,17.38
2022-10-06T08:47:13.771Z,17.77
2022-10-06T08:49:46.086Z,18.05
2022-10-06T08:52:46.271Z,18.25
2022-10-06T08:55:47.843Z,18.63
2022-10-06T08:58:39.187Z,18.80
2022-10-06T09:01:20.003Z,19.89
2022-10-06T09:03:51.947Z,20.12
2022-10-06T09:07:11.368Z,20.00
2022-10-06T09:10:26.469Z,19.49
2022-10-06T09:13:21.739Z,19.91
2022-10-06T09:16:18.899Z,20.15
2022-10-06T09:19:08.389Z,19.69
2022-10-06T09:21:51.534Z,19.58
2022-10-06T09:24:33.699Z,19.81
2022-10-06T09:27:33.688Z,19.91
2022-10-06T09:30:04.822Z,19.89
2022-10-06T09:32:34.729Z,20.07
2022-10-06T09:35:19.515Z,20.28
2022-10-06T09:38:08.675Z,20.32
2022-10-06T09:40:46.486Z,20.54
2022-10-06T09:43:29.204Z,20.58
2022-10-06T09:46:31.462Z,20.57
2022-10-06T09:49:24.723Z,20.51
2022-10-06T09:52:15.202Z,20.54
2022-10-06T09:54:44.510Z,20.70
2022-10-06T09:57:24.535Z,20.64
2022-10-06T09:59:52.795Z,20.69
2022-10-06T10:02:37.197Z,20.76
2022-10-06T10:05:18.349Z,20.92
2022-10-06T10:07:48.234Z,21.07
2022-10-06T10:10:24.644Z,21.15
2022-10-06T10:12:55.029Z,21.29
2022-10-06T10:15:22.147Z,21.57
2022-10-06T10:17:52.603Z,21.64
2022-10-06T10:20:30.059Z,21.78
2022-10-06T10:23:03.414Z,21.64
2022-10-06T10:26:04.257Z,21.88
2022-10-06T10:29:08.589Z,22.12
2022-10-06T10:31:59.473Z,22.29
2022-10-06T10:35:13.727Z,22.25
2022-10-06T10:37:51.430Z,22.30
2022-10-06T10:40:47.264Z,22.24
2022-10-06T10:43:48.119Z,22.23
2022-10-06T10:46:35.662Z,22.18
2022-10-06T10:49:19.602Z,22.20
2022-10-06T10:51:55.929Z,22.30
2022-10-06T10:54:42.573Z,22.40
2022-10-06T10:57:16.685Z,22.43
2022-10-06T11:00:08.845Z,22.30
2022-10-06T11:02:38.300Z,22.23
2022-10-06T11:05:25.394Z,22.59
2022-10-06T11:08:35.888Z,22.52
2022-10-06T11:11:13.626Z,22.61
2022-10-06T11:13:45.852Z,22.65
2022-10-06T11:16:37.037Z,22.85
2022-10-06T11:20:05.761Z,23.02
2022-10-06T11:22:44.923Z,23.48
2022-10-06T11:25:40.071Z,23.55
2022-10-06T11:28:24.006Z,23.69
2022-10-06T11:31:22.809Z,23.65
2022-10-06T11:33:54.963Z,23.78
2022-10-06T11:36:47.849Z,23.95
2022-10-06T11:39:49.865Z,23.76
2022-10-06T11:42:58.921Z,24.05
2022-10-06T11:46:06.319Z,24.03
2022-10-06T11:48:34.650Z,24.10
2022-10-06T11:51:25.185Z,24.05
2022-10-06T11:53:54.366Z,24.05
2022-10-06T11:56:21.657Z,24.13
2022-10-06T11:58:51.957Z,24.25
2022-10-06T12:01:45.122Z,24.60
2022-10-06T12:04:19.453Z,25.66
2022-10-06T12:06:56.896Z,25.70
2022-10-06T12:12:08.287Z,25.22
2022-10-06T12:18:17.614Z,25.46
2022-10-06T12:21:17.542Z,25.00
2022-10-06T12:23:56.469Z,24.83
2022-10-06T12:26:41.282Z,24.66
2022-10-06T12:29:46.081Z,24.84
2022-10-06T12:32:46.498Z,24.61
2022-10-06T12:35:25.278Z,24.47
2022-10-06T12:38:00.486Z,24.17
2022-10-06T12:40:54.528Z,23.94
2022-10-06T12:43:22.553Z,23.87
2022-10-06T12:46:01.390Z,23.86
2022-10-06T12:49:04.757Z,23.77
2022-10-06T12:51:44.568Z,23.66
2022-10-06T12:54:20.806Z,23.47
2022-10-06T12:57:00.202Z,23.38
2022-10-06T12:59:35.234Z,23.27
2022-10-06T13:02:14.492Z,23.11
2022-10-06T13:05:10.041Z,23.06
2022-10-06T13:08:21.752Z,23.09
2022-10-06T13:10:49.283Z,23.15
2022-10-06T13:13:24.599Z,23.24
2022-10-06T13:16:00.723Z,23.33
2022-10-06T13:18:31.449Z,23.38
2022-10-06T13:21:00.771Z,23.45
2022-10-06T13:23:34.835Z,23.50
2022-10-06T13:26:07.497Z,23.60
2022-10-06T13:28:44.402Z,23.65
2022-10-06T13:31:15.069Z,23.70
2022-10-06T13:33:52.598Z,23.85
2022-10-06T13:36:20.378Z,24.01
2022-10-06T13:38:47.705Z,24.14
2022-10-06T13:41:30.750Z,24.12
2022-10-06T13:44:24.616Z,23.87
2022-10-06T13:46:58.309Z,23.69
2022-10-06T13:49:46.035Z,23.62
2022-10-06T13:52:30.072Z,23.58
2022-10-06T13:55:03.977Z,23.52
2022-10-06T13:57:48.717Z,23.41
2022-10-06T14:00:29.955Z,23.37
2022-10-06T14:03:10.850Z,23.48
2022-10-06T14:05:43.389Z,23.33
2022-10-06T14:08:10.363Z,23.24
2022-10-06T14:11:08.118Z,23.25
2022-10-06T14:13:49.947Z,23.23
2022-10-06T14:16:25.203Z,23.17
2022-10-06T14:18:56.511Z,23.16
2022-10-06T14:21:35.725Z,23.18
2022-10-06T14:24:17.995Z,23.17
2022-10-06T14:26:49.936Z,23.18
2022-10-06T14:29:19.278Z,23.07
2022-10-06T14:31:47.939Z,23.01
2022-10-06T14:34:21.004Z,22.97
2022-10-06T14:36:51.642Z,22.93
2022-10-06T14:39:19.846Z,22.93
2022-10-06T14:41:47.362Z,22.84
2022-10-06T14:44:15.966Z,22.71
2022-10-06T14:46:48.855Z,22.62
2022-10-06T14:49:16.923Z,22.58
2022-10-06T14:51:45.123Z,22.48
2022-10-06T14:54:13.803Z,22.38
2022-10-06T14:56:42.321Z,22.32
2022-10-06T14:59:16.604Z,22.26
2022-10-06T15:01:45.622Z,22.19
2022-10-06T15:04:16.133Z,22.12
2022-10-06T15:07:02.554Z,22.07
2022-10-06T15:09:31.453Z,21.99
2022-10-06T15:11:59.931Z,21.93
2022-10-06T15:14:29.776Z,21.87
2022-10-06T15:17:00.672Z,21.79
2022-10-06T15:19:31.573Z,21.74
2022-10-06T15:21:58.978Z,21.68
2022-10-06T15:24:26.486Z,21.63
2022-10-06T15:27:12.471Z,21.58
2022-10-06T15:29:39.795Z,21.52
2022-10-06T15:32:07.352Z,21.48
2022-10-06T15:34:37.660Z,21.43
2022-10-06T15:37:06.293Z,21.38
2022-10-06T15:39:37.410Z,21.32
2022-10-06T15:42:05.321Z,21.27
2022-10-06T15:44:34.531Z,21.20
2022-10-06T15:47:05.918Z,21.15
2022-10-06T15:49:39.223Z,21.10
2022-10-06T15:52:08.616Z,21.06
2022-10-06T15:54:40.605Z,21.01
2022-10-06T15:57:19.454Z,20.97
2022-10-06T15:59:48.272Z,20.92
2022-10-06T16:02:18.130Z,20.90
2022-10-06T16:05:17.696Z,20.84
2022-10-06T16:07:45.135Z,20.79
2022-10-06T16:10:13.419Z,20.75
2022-10-06T16:12:40.710Z,20.71
2022-10-06T16:15:08.626Z,20.69
2022-10-06T16:17:35.626Z,20.63
2022-10-06T16:20:06.070Z,20.58
2022-10-06T16:22:33.369Z,20.55
2022-10-06T16:25:00.712Z,20.50
2022-10-06T16:27:33.443Z,20.46
2022-10-06T16:30:02.376Z,20.42
2022-10-06T16:32:29.469Z,20.37
2022-10-06T16:34:57.460Z,20.32
2022-10-06T16:37:24.831Z,20.28
2022-10-06T16:39:52.788Z,20.22
2022-10-06T16:42:20.116Z,20.18
2022-10-06T16:44:47.259Z,20.13
2022-10-06T16:47:14.454Z,20.10
2022-10-06T16:49:41.667Z,20.05
2022-10-06T16:52:08.814Z,20.01
2022-10-06T16:54:35.810Z,19.95
2022-10-06T16:57:06.681Z,19.88
2022-10-06T16:59:33.969Z,19.82
2022-10-06T17:02:00.981Z,19.70
2022-10-06T17:04:28.562Z,19.65
2022-10-06T17:06:57.206Z,19.61
2022-10-06T17:09:29.648Z,19.52
2022-10-06T17:12:00.611Z,19.44
2022-10-06T17:14:34.532Z,19.41
2022-10-06T17:17:03.624Z,19.37
2022-10-06T17:20:38.394Z,19.31
2022-10-06T17:22:50.273Z,19.25
2022-10-06T17:25:22.335Z,19.21
2022-10-06T17:27:58.797Z,19.17
2022-10-06T17:30:49.561Z,19.12
2022-10-06T17:38:58.326Z,18.92
2022-10-06T17:41:33.047Z,18.87
2022-10-06T17:50:40.514Z,18.74
2022-10-06T17:53:11.440Z,18.71
2022-10-06T17:55:55.695Z,18.67
2022-10-06T17:58:30.339Z,18.63
2022-10-06T18:04:17.393Z,18.56
2022-10-06T18:07:07.457Z,18.53
2022-10-06T18:20:19.351Z,18.32
2022-10-06T18:22:48.493Z,18.28
2022-10-06T18:25:16.807Z,18.24
2022-10-06T18:27:46.892Z,18.21
2022-10-06T18:30:14.378Z,18.16
2022-10-06T18:38:29.118Z,18.04
2022-10-06T18:41:55.319Z,17.99
2022-10-06T18:54:16.665Z,17.83
2022-10-06T18:56:51.629Z,17.79
2022-10-06T18:59:23.283Z,17.77
2022-10-06T19:24:44.862Z,17.44
2022-10-06T19:27:24.894Z,17.40
2022-10-06T19:29:56.377Z,17.36
2022-10-06T19:32:28.571Z,17.34
2022-10-06T19:34:58.951Z,17.29
2022-10-06T19:37:30.388Z,17.25
2022-10-06T19:40:08.932Z,17.23
2022-10-06T19:42:49.594Z,17.20
2022-10-06T19:45:21.067Z,17.16
2022-10-06T19:56:35.674Z,17.04
2022-10-06T19:59:05.755Z,16.99
2022-10-06T20:01:34.105Z,16.98
2022-10-06T20:04:03.923Z,16.96
2022-10-06T20:06:32.097Z,16.93
2022-10-06T20:09:11.535Z,16.93
2022-10-06T20:11:42.545Z,16.88
2022-10-06T20:43:43.847Z,16.49
2022-10-06T20:56:52.407Z,16.35
2022-10-06T20:59:22.915Z,16.32
2022-10-06T21:01:51.874Z,16.29
2022-10-06T21:04:21.878Z,16.27
2022-10-06T21:06:49.492Z,16.26
2022-10-06T21:09:19.624Z,16.25
2022-10-06T21:11:49.120Z,16.23
2022-10-06T21:14:25.714Z,16.20
2022-10-06T21:21:51.657Z,16.13
2022-10-06T21:24:53.806Z,16.10
2022-10-06T21:38:47.538Z,16.01
2022-10-06T21:41:58.829Z,15.98
2022-10-06T21:44:26.601Z,15.94
2022-10-06T21:47:21.556Z,15.94
2022-10-06T22:14:21.487Z,15.70
2022-10-06T22:16:49.027Z,15.68
2022-10-06T22:19:18.024Z,15.66
2022-10-06T23:13:45.401Z,15.15
2022-10-06T23:23:46.613Z,14.84
2022-10-06T23:26:18.932Z,14.82
